createdAt,value
2023-04-02T00:01:28.366Z,97205.31
2023-04-02T00:04:02.978Z,97210.52
2023-04-02T00:06:32.201Z,97209.10
2023-04-02T00:09:15.324Z,97213.38
2023-04-02T00:11:44.268Z,97211.59
2023-04-02T00:14:21.606Z,97216.91
2023-04-02T00:16:48.741Z,97219.24
2023-04-02T00:19:27.988Z,97222.56
2023-04-02T00:21:56.372Z,97218.47
2023-04-02T00:24:23.228Z,97220.55
2023-04-02T00:26:51.606Z,97227.86
2023-04-02T00:29:18.965Z,97232.16
2023-04-02T00:31:47.706Z,97239.01
2023-04-02T00:34:26.375Z,97238.81
2023-04-02T00:36:53.943Z,97234.22
2023-04-02T00:39:26.834Z,97233.53
2023-04-02T00:42:04.318Z,97238.59
2023-04-02T00:44:33.620Z,97235.17
2023-04-02T00:47:04.566Z,97233.25
2023-04-02T00:49:35.303Z,97231.11
2023-04-02T00:52:04.408Z,97233.89
2023-04-02T00:54:37.080Z,97236.41
2023-04-02T00:57:04.183Z,97236.85
2023-04-02T00:59:32.929Z,97240.20
2023-04-02T01:02:03.868Z,97242.73
2023-04-02T01:04:35.890Z,97241.04
2023-04-02T01:07:06.057Z,97242.67
2023-04-02T01:09:51.855Z,97239.64
2023-04-02T01:12:18.890Z,97242.13
2023-04-02T01:14:45.975Z,97242.31
2023-04-02T01:17:26.051Z,97238.20
2023-04-02T01:20:01.045Z,97247.57
2023-04-02T01:22:35.653Z,97250.30
2023-04-02T01:25:06.094Z,97252.08
2023-04-02T01:27:53.192Z,97254.73
2023-04-02T01:30:20.860Z,97253.96
2023-04-02T01:32:49.192Z,97250.08
2023-04-02T01:35:16.914Z,97256.01
2023-04-02T01:37:52.882Z,97259.23
2023-04-02T01:40:22.990Z,97261.34
2023-04-02T01:42:50.045Z,97258.52
2023-04-02T01:45:19.244Z,97262.50
2023-04-02T01:47:46.313Z,97261.83
2023-04-02T01:50:19.403Z,97265.13
2023-04-02T01:52:51.040Z,97264.80
2023-04-02T01:55:20.755Z,97270.11
2023-04-02T01:57:50.666Z,97271.20
2023-04-02T02:00:18.647Z,97273.17
2023-04-02T02:02:48.474Z,97276.31
2023-04-02T02:05:17.826Z,97275.04
2023-04-02T02:07:46.151Z,97277.60
2023-04-02T02:10:16.891Z,97270.56
2023-04-02T02:12:44.453Z,97273.59
2023-04-02T02:15:16.572Z,97274.38
2023-04-02T02:17:44.326Z,97274.83
2023-04-02T02:20:12.496Z,97276.29
2023-04-02T02:22:43.014Z,97274.70
2023-04-02T02:25:11.554Z,97283.08
2023-04-02T02:27:51.271Z,97279.28
2023-04-02T02:30:30.090Z,97280.86
2023-04-02T02:33:03.233Z,97285.77
2023-04-02T02:35:33.187Z,97285.30
2023-04-02T02:38:26.931Z,97292.38
2023-04-02T02:40:58.488Z,97294.83
2023-04-02T02:43:26.049Z,97297.38
2023-04-02T02:45:54.968Z,97302.34
2023-04-02T02:48:23.680Z,97302.40
2023-04-02T02:50:51.017Z,97299.73
2023-04-02T02:53:21.527Z,97301.31
2023-04-02T02:55:50.723Z,97302.43
2023-04-02T02:58:26.805Z,97306.30
2023-04-02T03:01:03.195Z,97306.80
2023-04-02T03:03:33.727Z,97306.80
2023-04-02T03:06:06.924Z,97310.23
2023-04-02T03:08:43.647Z,97312.65
2023-04-02T03:11:23.489Z,97309.73
2023-04-02T03:13:54.236Z,97311.14
2023-04-02T03:16:28.762Z,97310.48
2023-04-02T03:19:02.250Z,97313.45
2023-04-02T03:21:35.753Z,97313.77
2023-04-02T03:24:31.972Z,97317.05
2023-04-02T03:27:03.302Z,97317.25
2023-04-02T03:29:32.840Z,97317.97
2023-04-02T03:32:03.466Z,97319.15
2023-04-02T03:34:36.965Z,97316.91
2023-04-02T03:37:14.256Z,97316.23
2023-04-02T03:39:43.866Z,97312.50
2023-04-02T03:42:18.183Z,97311.85
2023-04-02T03:44:54.872Z,97317.55
2023-04-02T03:47:31.773Z,97319.70
2023-04-02T03:50:07.082Z,97324.81
2023-04-02T03:52:36.378Z,97332.30
2023-04-02T03:55:25.642Z,97332.19
2023-04-02T03:57:52.998Z,97333.66
2023-04-02T04:00:26.097Z,97335.23
2023-04-02T04:02:57.076Z,97340.17
2023-04-02T04:05:28.486Z,97337.73
2023-04-02T04:08:01.722Z,97343.52
2023-04-02T04:10:29.448Z,97349.79
2023-04-02T04:13:02.231Z,97350.95
2023-04-02T04:15:40.236Z,97348.37
2023-04-02T04:18:29.386Z,97351.61
2023-04-02T04:20:57.975Z,97352.80
2023-04-02T04:23:40.598Z,97360.42
2023-04-02T04:26:12.453Z,97369.05
2023-04-02T04:29:05.089Z,97372.94
2023-04-02T04:31:40.020Z,97375.44
2023-04-02T04:34:11.060Z,97377.96
2023-04-02T04:36:47.528Z,97382.84
2023-04-02T04:39:17.967Z,97382.27
2023-04-02T04:41:48.234Z,97385.98
2023-04-02T04:44:22.605Z,97390.58
2023-04-02T04:46:56.455Z,97390.02
2023-04-02T04:49:27.059Z,97395.30
2023-04-02T04:51:56.261Z,97396.89
2023-04-02T04:54:25.654Z,97398.23
2023-04-02T04:57:00.595Z,97398.14
2023-04-02T04:59:47.309Z,97404.80
2023-04-02T05:02:22.339Z,97407.20
2023-04-02T05:04:51.227Z,97411.23
2023-04-02T05:07:21.152Z,97416.30
2023-04-02T05:09:55.048Z,97419.63
2023-04-02T05:12:41.343Z,97427.73
2023-04-02T05:15:11.049Z,97426.63
2023-04-02T05:17:47.436Z,97431.97
2023-04-02T05:20:16.003Z,97436.85
2023-04-02T05:23:02.294Z,97438.91
2023-04-02T05:25:30.065Z,97443.06
2023-04-02T05:27:59.777Z,97451.23
2023-04-02T05:30:26.934Z,97451.14
2023-04-02T05:33:18.446Z,97451.75
2023-04-02T05:35:47.964Z,97453.22
2023-04-02T05:38:22.612Z,97452.23
2023-04-02T05:41:04.484Z,97453.69
2023-04-02T05:43:33.677Z,97454.20
2023-04-02T05:46:04.945Z,97455.19
2023-04-02T05:48:34.947Z,97455.29
2023-04-02T05:51:05.084Z,97455.60
2023-04-02T05:53:37.345Z,97455.64
2023-04-02T05:56:13.298Z,97455.27
2023-04-02T05:58:45.644Z,97458.20
2023-04-02T06:01:28.855Z,97463.27
2023-04-02T06:04:06.581Z,97466.13
2023-04-02T06:06:43.667Z,97466.41
2023-04-02T06:09:18.903Z,97462.79
2023-04-02T06:11:49.147Z,97463.80
2023-04-02T06:14:18.024Z,97462.55
2023-04-02T06:16:46.684Z,97462.23
2023-04-02T06:19:25.606Z,97463.27
2023-04-02T06:21:58.729Z,97465.70
2023-04-02T06:24:27.661Z,97474.23
2023-04-02T06:26:57.570Z,97473.93
2023-04-02T06:29:39.541Z,97474.05
2023-04-02T06:32:09.425Z,97475.69
2023-04-02T06:34:40.592Z,97476.67
2023-04-02T06:37:15.155Z,97477.52
2023-04-02T06:39:42.564Z,97481.75
2023-04-02T06:42:21.313Z,97483.48
2023-04-02T06:45:20.568Z,97483.06
2023-04-02T06:47:55.737Z,97481.08
2023-04-02T06:50:50.994Z,97480.56
2023-04-02T06:53:27.817Z,97485.11
2023-04-02T06:56:02.725Z,97487.96
2023-04-02T06:58:31.099Z,97492.02
2023-04-02T07:00:58.691Z,97488.77
2023-04-02T07:03:34.040Z,97492.06
2023-04-02T07:06:13.089Z,97493.45
2023-04-02T07:08:39.972Z,97488.77
2023-04-02T07:11:06.951Z,97491.61
2023-04-02T07:13:33.773Z,97494.61
2023-04-02T07:16:00.984Z,97497.11
2023-04-02T07:18:29.542Z,97501.95
2023-04-02T07:20:57.365Z,97504.59
2023-04-02T07:23:25.591Z,97507.13
2023-04-02T07:25:53.053Z,97510.08
2023-04-02T07:28:22.010Z,97513.20
2023-04-02T07:30:50.443Z,97522.53
2023-04-02T07:33:19.126Z,97524.16
2023-04-02T07:35:46.807Z,97526.63
2023-04-02T07:38:13.743Z,97527.60
2023-04-02T07:40:40.795Z,97527.77
2023-04-02T07:43:08.223Z,97528.95
2023-04-02T07:45:35.454Z,97533.31
2023-04-02T07:48:06.344Z,97535.56
2023-04-02T07:50:33.555Z,97533.80
2023-04-02T07:53:00.769Z,97539.20
2023-04-02T07:55:27.697Z,97537.68
2023-04-02T07:57:55.458Z,97537.95
2023-04-02T08:00:23.360Z,97539.17
2023-04-02T08:02:50.930Z,97539.83
2023-04-02T08:05:18.389Z,97540.32
2023-04-02T08:07:51.883Z,97537.73
2023-04-02T08:10:18.942Z,97545.36
2023-04-02T08:12:45.995Z,97545.89
2023-04-02T08:15:14.787Z,97547.70
2023-04-02T08:17:42.604Z,97547.28
2023-04-02T08:20:19.587Z,97545.85
2023-04-02T08:22:46.819Z,97545.42
2023-04-02T08:25:13.744Z,97545.59
2023-04-02T08:27:41.518Z,97543.52
2023-04-02T08:30:08.676Z,97545.84
2023-04-02T08:32:35.672Z,97543.35
2023-04-02T08:35:02.792Z,97543.16
2023-04-02T08:37:30.033Z,97544.70
2023-04-02T08:39:56.890Z,97547.45
2023-04-02T08:42:23.859Z,97546.45
2023-04-02T08:45:24.981Z,97545.95
2023-04-02T08:47:56.158Z,97547.44
2023-04-02T08:50:23.174Z,97546.39
2023-04-02T08:52:51.342Z,97550.65
2023-04-02T08:55:22.228Z,97556.77
2023-04-02T08:57:53.900Z,97556.13
2023-04-02T09:00:26.980Z,97555.53
2023-04-02T09:03:10.581Z,97553.96
2023-04-02T09:05:39.452Z,97556.95
2023-04-02T09:08:15.818Z,97558.83
2023-04-02T09:10:47.681Z,97556.33
2023-04-02T09:13:25.439Z,97552.40
2023-04-02T09:15:56.174Z,97557.94
2023-04-02T09:18:23.290Z,97557.57
2023-04-02T09:20:50.553Z,97558.91
2023-04-02T09:23:22.232Z,97559.02
2023-04-02T09:26:03.555Z,97560.66
2023-04-02T09:28:31.662Z,97561.63
2023-04-02T09:31:11.665Z,97568.23
2023-04-02T09:33:46.545Z,97570.30
2023-04-02T09:36:36.802Z,97573.42
2023-04-02T09:39:06.353Z,97573.61
2023-04-02T09:41:36.731Z,97574.66
2023-04-02T09:44:12.905Z,97575.08
2023-04-02T09:46:52.342Z,97573.84
2023-04-02T09:49:22.365Z,97572.61
2023-04-02T09:52:09.674Z,97573.19
2023-04-02T09:54:43.176Z,97575.20
2023-04-02T09:57:23.335Z,97575.43
2023-04-02T10:02:44.784Z,97576.21
2023-04-02T10:05:26.607Z,97580.07
2023-04-02T10:08:15.907Z,97578.51
2023-04-02T10:10:44.188Z,97585.30
2023-04-02T10:13:20.955Z,97584.46
2023-04-02T10:16:03.566Z,97580.99
2023-04-02T10:18:40.752Z,97583.46
2023-04-02T10:21:08.315Z,97587.55
2023-04-02T10:23:35.778Z,97585.23
2023-04-02T10:26:11.738Z,97586.63
2023-04-02T10:28:51.271Z,97584.61
2023-04-02T10:31:19.785Z,97583.36
2023-04-02T10:33:48.819Z,97575.48
2023-04-02T10:36:47.618Z,97575.27
2023-04-02T10:39:33.420Z,97570.59
2023-04-02T10:42:23.094Z,97571.60
2023-04-02T10:44:50.036Z,97571.52
2023-04-02T10:47:30.734Z,97568.92
2023-04-02T10:50:16.077Z,97572.23
2023-04-02T10:52:46.047Z,97571.74
2023-04-02T10:55:16.016Z,97572.17
2023-04-02T10:57:44.192Z,97571.95
2023-04-02T11:00:11.403Z,97568.59
2023-04-02T11:02:44.285Z,97568.05
2023-04-02T11:05:16.501Z,97568.96
2023-04-02T11:07:55.740Z,97568.57
2023-04-02T11:10:23.328Z,97572.04
2023-04-02T11:12:54.952Z,97570.20
2023-04-02T11:15:22.210Z,97570.14
2023-04-02T11:17:49.333Z,97568.23
2023-04-02T11:20:35.567Z,97568.05
2023-04-02T11:23:09.889Z,97568.27
2023-04-02T11:25:37.271Z,97564.95
2023-04-02T11:28:24.651Z,97570.13
2023-04-02T11:30:52.831Z,97565.08
2023-04-02T11:33:35.764Z,97563.23
2023-04-02T11:36:03.471Z,97566.36
2023-04-02T11:38:42.855Z,97562.41
2023-04-02T11:41:09.751Z,97561.42
2023-04-02T11:43:36.774Z,97562.98
2023-04-02T11:46:16.034Z,97562.77
2023-04-02T11:48:43.236Z,97565.73
2023-04-02T11:51:22.407Z,97564.94
2023-04-02T11:53:51.470Z,97560.52
2023-04-02T11:56:20.771Z,97563.71
2023-04-02T11:59:03.276Z,97561.61
2023-04-02T12:01:39.659Z,97561.49
2023-04-02T12:04:12.727Z,97564.97
2023-04-02T12:06:46.432Z,97564.73
2023-04-02T12:09:18.811Z,97567.44
2023-04-02T12:11:47.094Z,97565.05
2023-04-02T12:14:29.291Z,97562.09
2023-04-02T12:16:56.487Z,97554.45
2023-04-02T12:19:24.880Z,97554.66
2023-04-02T12:21:52.541Z,97556.17
2023-04-02T12:24:20.983Z,97552.97
2023-04-02T12:26:47.899Z,97555.90
2023-04-02T12:29:25.727Z,97552.02
2023-04-02T12:31:56.888Z,97552.48
2023-04-02T12:34:25.042Z,97556.03
2023-04-02T12:36:55.206Z,97555.70
2023-04-02T12:39:23.502Z,97548.30
2023-04-02T12:41:51.532Z,97545.58
2023-04-02T12:44:21.351Z,97544.23
2023-04-02T12:46:49.325Z,97540.00
2023-04-02T12:49:31.417Z,97538.27
2023-04-02T12:52:01.335Z,97532.82
2023-04-02T12:54:29.616Z,97531.95
2023-04-02T12:57:16.445Z,97535.27
2023-04-02T12:59:43.410Z,97539.53
2023-04-02T13:02:21.173Z,97534.88
2023-04-02T13:04:52.528Z,97537.36
2023-04-02T13:07:21.114Z,97533.21
2023-04-02T13:09:51.957Z,97533.39
2023-04-02T13:12:39.162Z,97533.15
2023-04-02T13:15:07.647Z,97532.61
2023-04-02T13:17:48.377Z,97530.54
2023-04-02T13:20:29.087Z,97525.55
2023-04-02T13:22:56.099Z,97528.82
2023-04-02T13:25:27.508Z,97530.15
2023-04-02T13:27:54.478Z,97527.18
2023-04-02T13:30:22.569Z,97527.09
2023-04-02T13:32:49.532Z,97524.39
2023-04-02T13:35:16.544Z,97524.31
2023-04-02T13:37:43.317Z,97525.91
2023-04-02T13:40:14.170Z,97520.77
2023-04-02T13:42:42.031Z,97520.31
2023-04-02T13:45:29.628Z,97516.00
2023-04-02T13:48:01.415Z,97514.18
2023-04-02T13:50:29.872Z,97513.27
2023-04-02T13:52:58.016Z,97509.91
2023-04-02T13:55:29.982Z,97505.85
2023-04-02T13:57:57.242Z,97507.34
2023-04-02T14:00:24.104Z,97505.35
2023-04-02T14:02:53.637Z,97505.33
2023-04-02T14:05:20.442Z,97511.26
2023-04-02T14:08:02.233Z,97512.13
2023-04-02T14:10:29.080Z,97513.11
2023-04-02T14:12:59.205Z,97507.19
2023-04-02T14:15:27.176Z,97506.88
2023-04-02T14:18:00.436Z,97507.88
2023-04-02T14:20:36.532Z,97506.08
2023-04-02T14:23:20.061Z,97510.49
2023-04-02T14:26:03.183Z,97508.46
2023-04-02T14:28:37.707Z,97511.41
2023-04-02T14:31:11.922Z,97509.77
2023-04-02T14:33:38.780Z,97509.80
2023-04-02T14:36:18.434Z,97516.85
2023-04-02T14:38:52.697Z,97513.56
2023-04-02T14:41:42.861Z,97517.04
2023-04-02T14:44:10.899Z,97519.21
2023-04-02T14:46:38.503Z,97521.66
2023-04-02T14:49:08.773Z,97526.02
2023-04-02T14:51:37.775Z,97530.29
2023-04-02T14:54:04.633Z,97526.80
2023-04-02T14:56:38.651Z,97530.36
2023-04-02T14:59:15.563Z,97531.85
2023-04-02T15:01:46.421Z,97536.45
2023-04-02T15:04:31.862Z,97535.77
2023-04-02T15:07:05.113Z,97534.89
2023-04-02T15:09:41.518Z,97535.42
2023-04-02T15:12:38.071Z,97538.55
2023-04-02T15:15:08.127Z,97540.34
2023-04-02T15:17:35.756Z,97538.50
2023-04-02T15:20:12.081Z,97539.77
2023-04-02T15:22:47.196Z,97538.80
2023-04-02T15:25:29.186Z,97541.05
2023-04-02T15:28:11.385Z,97538.86
2023-04-02T15:30:42.743Z,97541.31
2023-04-02T15:33:33.032Z,97546.77
2023-04-02T15:36:00.007Z,97565.48
2023-04-02T15:38:37.574Z,97569.07
2023-04-02T15:41:14.046Z,97577.36
2023-04-02T15:43:40.879Z,97595.73
2023-04-02T15:46:23.166Z,97606.25
2023-04-02T15:48:52.895Z,97611.31
2023-04-02T15:51:38.473Z,97610.63
2023-04-02T15:54:37.861Z,97615.92
2023-04-02T15:57:10.786Z,97613.29
2023-04-02T15:59:53.456Z,97615.23
2023-04-02T16:02:45.530Z,97617.91
2023-04-02T16:05:17.243Z,97606.63
2023-04-02T16:08:06.708Z,97607.69
2023-04-02T16:10:42.098Z,97610.98
2023-04-02T16:13:28.756Z,97609.12
2023-04-02T16:16:04.812Z,97613.23
2023-04-02T16:18:50.892Z,97615.40
2023-04-02T16:21:22.273Z,97625.33
2023-04-02T16:23:50.015Z,97626.65
2023-04-02T16:26:26.294Z,97627.66
2023-04-02T16:28:59.266Z,97633.38
2023-04-02T16:31:32.129Z,97631.44
2023-04-02T16:34:17.830Z,97638.79
2023-04-02T16:37:10.059Z,97645.62
2023-04-02T16:39:55.746Z,97649.99
2023-04-02T16:42:23.915Z,97655.67
2023-04-02T16:45:03.013Z,97664.63
2023-04-02T16:47:49.299Z,97668.90
2023-04-02T16:50:31.738Z,97669.53
2023-04-02T16:53:21.513Z,97675.52
2023-04-02T16:55:51.528Z,97678.39
2023-04-02T16:58:48.569Z,97689.48
2023-04-02T17:01:21.386Z,97687.06
2023-04-02T17:06:39.112Z,97698.81
2023-04-02T17:09:15.226Z,97703.38
2023-04-02T17:11:59.196Z,97705.89
2023-04-02T17:14:41.806Z,97702.36
2023-04-02T17:17:11.030Z,97706.52
2023-04-02T17:19:39.393Z,97709.34
2023-04-02T17:22:07.172Z,97707.85
2023-04-02T17:24:42.518Z,97707.80
2023-04-02T17:27:12.721Z,97707.63
2023-04-02T17:29:42.842Z,97711.90
2023-04-02T17:32:20.536Z,97715.27
2023-04-02T17:34:47.424Z,97718.15
2023-04-02T17:37:33.276Z,97718.95
2023-04-02T17:40:03.661Z,97716.64
2023-04-02T17:42:49.381Z,97719.21
2023-04-02T17:45:39.525Z,97726.84
2023-04-02T17:48:15.756Z,97732.13
2023-04-02T17:50:42.671Z,97731.52
2023-04-02T17:53:28.248Z,97737.06
2023-04-02T17:56:13.774Z,97735.37
2023-04-02T17:58:58.820Z,97737.44
2023-04-02T18:01:44.766Z,97743.46
2023-04-02T18:04:26.722Z,97747.10
2023-04-02T18:06:53.620Z,97747.45
2023-04-02T18:09:20.474Z,97752.21
2023-04-02T18:11:47.407Z,97751.70
2023-04-02T18:14:32.924Z,97750.64
2023-04-02T18:17:18.566Z,97757.42
2023-04-02T18:19:57.997Z,97760.55
2023-04-02T18:22:31.100Z,97761.02
2023-04-02T18:25:10.534Z,97760.77
2023-04-02T18:27:40.339Z,97768.00
2023-04-02T18:30:13.734Z,97767.92
2023-04-02T18:32:59.032Z,97766.94
2023-04-02T18:35:33.856Z,97767.42
2023-04-02T18:38:03.957Z,97768.80
2023-04-02T18:40:39.917Z,97769.77
2023-04-02T18:43:06.855Z,97770.71
2023-04-02T18:45:51.195Z,97771.21
2023-04-02T18:48:31.575Z,97772.31
2023-04-02T18:50:59.946Z,97774.83
2023-04-02T18:53:28.839Z,97771.77
2023-04-02T18:55:55.792Z,97771.00
2023-04-02T18:58:26.735Z,97770.23
2023-04-02T19:00:55.016Z,97768.12
2023-04-02T19:03:32.337Z,97768.75
2023-04-02T19:06:03.351Z,97774.75
2023-04-02T19:08:39.299Z,97772.02
2023-04-02T19:11:16.893Z,97772.43
2023-04-02T19:13:44.625Z,97774.60
2023-04-02T19:16:14.328Z,97774.25
2023-04-02T19:18:49.724Z,97775.54
2023-04-02T19:21:26.904Z,97774.59
2023-04-02T19:24:06.441Z,97782.36
2023-04-02T19:26:44.549Z,97777.09
2023-04-02T19:29:20.937Z,97780.52
2023-04-02T19:31:47.916Z,97781.11
2023-04-02T19:34:27.195Z,97785.48
2023-04-02T19:36:57.630Z,97780.32
2023-04-02T19:39:27.246Z,97778.63
2023-04-02T19:42:10.662Z,97786.77
2023-04-02T19:44:40.808Z,97784.10
2023-04-02T19:47:08.665Z,97784.92
2023-04-02T19:49:35.681Z,97788.91
2023-04-02T19:52:02.900Z,97788.56
2023-04-02T19:54:29.827Z,97790.91
2023-04-02T19:56:56.561Z,97792.46
2023-04-02T19:59:23.351Z,97792.20
2023-04-02T20:01:50.126Z,97799.31
2023-04-02T20:04:16.984Z,97802.23
2023-04-02T20:06:43.999Z,97806.83
2023-04-02T20:09:10.773Z,97804.30
2023-04-02T20:11:37.935Z,97804.82
2023-04-02T20:14:05.762Z,97808.91
2023-04-02T20:16:33.332Z,97813.84
2023-04-02T20:19:00.156Z,97813.35
2023-04-02T20:21:27.368Z,97811.73
2023-04-02T20:23:54.342Z,97814.50
2023-04-02T20:26:22.146Z,97812.96
2023-04-02T20:28:49.099Z,97816.61
2023-04-02T20:31:17.320Z,97818.20
2023-04-02T20:33:44.342Z,97819.40
2023-04-02T20:36:12.966Z,97817.61
2023-04-02T20:38:39.720Z,97823.84
2023-04-02T20:41:07.227Z,97826.48
2023-04-02T20:43:35.494Z,97827.59
2023-04-02T20:46:04.918Z,97831.02
2023-04-02T20:48:32.372Z,97831.19
2023-04-02T20:51:00.337Z,97829.31
2023-04-02T20:53:31.190Z,97831.86
2023-04-02T20:56:05.872Z,97828.55
2023-04-02T20:58:33.773Z,97829.01
2023-04-02T21:01:11.692Z,97833.14
2023-04-02T21:03:39.448Z,97829.98
2023-04-02T21:06:11.382Z,97834.30
2023-04-02T21:08:38.335Z,97832.41
2023-04-02T21:11:05.614Z,97831.05
2023-04-02T21:13:33.087Z,97832.78
2023-04-02T21:16:00.262Z,97835.32
2023-04-02T21:18:27.288Z,97834.89
2023-04-02T21:21:02.325Z,97833.59
2023-04-02T21:23:29.680Z,97834.92
2023-04-02T21:25:57.958Z,97835.19
2023-04-02T21:28:25.324Z,97837.48
2023-04-02T21:30:52.431Z,97839.84
2023-04-02T21:33:19.230Z,97843.17
2023-04-02T21:35:46.129Z,97841.55
2023-04-02T21:38:12.960Z,97845.77
2023-04-02T21:40:39.703Z,97841.81
2023-04-02T21:43:06.596Z,97845.62
2023-04-02T21:45:33.422Z,97849.23
2023-04-02T21:48:00.456Z,97851.66
2023-04-02T21:50:27.611Z,97853.75
2023-04-02T21:52:54.729Z,97855.37
2023-04-02T21:55:21.638Z,97856.21
2023-04-02T21:57:48.461Z,97855.54
2023-04-02T22:00:15.440Z,97851.46
2023-04-02T22:02:42.407Z,97856.87
2023-04-02T22:05:09.369Z,97856.26
2023-04-02T22:07:36.152Z,97857.13
2023-04-02T22:10:03.141Z,97857.98
2023-04-02T22:12:29.889Z,97859.09
2023-04-02T22:14:56.766Z,97863.94
2023-04-02T22:17:23.497Z,97859.69
2023-04-02T22:19:50.296Z,97862.48
2023-04-02T22:22:17.049Z,97868.36
2023-04-02T22:24:43.883Z,97870.73
2023-04-02T22:27:12.166Z,97868.55
2023-04-02T22:29:39.029Z,97865.95
2023-04-02T22:32:05.884Z,97869.05
2023-04-02T22:34:32.626Z,97871.71
2023-04-02T22:36:59.502Z,97874.20
2023-04-02T22:39:26.277Z,97875.59
2023-04-02T22:41:53.043Z,97869.60
2023-04-02T22:44:19.846Z,97869.72
2023-04-02T22:46:46.625Z,97868.66
2023-04-02T22:49:18.374Z,97871.92
2023-04-02T22:51:45.639Z,97875.85
2023-04-02T22:54:12.497Z,97879.98
2023-04-02T22:56:39.274Z,97881.11
2023-04-02T22:59:06.190Z,97878.23
2023-04-02T23:01:34.768Z,97875.76
2023-04-02T23:04:01.675Z,97878.64
2023-04-02T23:06:28.606Z,97878.81
2023-04-02T23:08:55.791Z,97882.05
2023-04-02T23:11:24.267Z,97885.70
2023-04-02T23:13:52.244Z,97884.25
2023-04-02T23:16:19.371Z,97885.05
2023-04-02T23:18:47.556Z,97884.55
2023-04-02T23:21:15.377Z,97882.87
2023-04-02T23:23:42.815Z,97883.50
2023-04-02T23:26:11.019Z,97881.74
2023-04-02T23:28:39.443Z,97884.46
2023-04-02T23:31:07.488Z,97884.67
2023-04-02T23:33:34.897Z,97888.20
2023-04-02T23:36:09.480Z,97888.35
2023-04-02T23:38:36.328Z,97889.06
2023-04-02T23:41:03.271Z,97892.13
2023-04-02T23:43:30.305Z,97890.86
2023-04-02T23:45:57.180Z,97888.58
2023-04-02T23:48:24.174Z,97887.31
2023-04-02T23:50:50.953Z,97891.42
2023-04-02T23:53:18.210Z,97889.48
2023-04-02T23:55:45.391Z,97891.79
2023-04-02T23:58:12.251Z,97890.54
